LTBA/IST METAR and TAF weather

Enter ICAO airport designator
Station Type Date Time Source
LTBA METAR 2021/02/28 03:20 UTC NOAA

LTBA 280320Z 02016KT 9999 BKN010 BKN022 07/05 Q1025 NOSIG


Station Type Date Time Source
LTBA Decoded METAR 2021/02/28 03:20 UTC NOAA

Istanbul / Ataturk, Turkey (LTBA) 40-58N 028-49E 37M
Feb 27, 2021 - 10:20 PM EST / 2021.02.28 0320 UTC
Wind: from the NNE (020 degrees) at 18 MPH (16 KT):0
Visibility: greater than 7 mile(s):0
Sky conditions: mostly cloudy
Temperature: 44 F (7 C)
Dew Point: 41 F (5 C)
Relative Humidity: 87%
Pressure (altimeter): 30.27 in. Hg (1025 hPa)
ob: LTBA 280320Z 02016KT 9999 BKN010 BKN022 07/05 Q1025 NOSIG
cycle: 3

Station Type Date Time Source
LTBA TAF 2021/02/27 18:03 UTC NOAA

TAF LTBA 271640Z 2718/2824 VRB02KT CAVOK
BECMG 2721/2724 02012G25KT BKN032
TEMPO 2803/2807 -SHRA BKN012 BKN022
BECMG 2815/2818 VRB02KT SCT035
BECMG 2821/2824 CAVOK

Example: see airport list